Time;durP1;ratioP1;P1;durP2;ratioP2;P2;SDS_P1;SDS_P2;PMS_P1;PMS_P2;Temp;Humidity;BMP_temperature;BMP_pressure;BME280_temperature;BME280_humidity;BME280_pressure;Samples;Min_cycle;Max_cycle;Signal;HPM_P1;HPM_P2
2023/07/12 00:00:19;;;;;;;3.40;2.80;;;26.00;91.60;;;;;;5008052;28;20464;-61
2023/07/12 00:02:45;;;;;;;3.03;2.73;;;26.00;91.50;;;;;;5009149;28;20464;-61
2023/07/12 00:05:12;;;;;;;3.30;2.70;;;26.00;91.90;;;;;;5011197;28;20476;-61
2023/07/12 00:07:40;;;;;;;2.43;2.23;;;26.00;91.60;;;;;;5007239;28;20472;-61
2023/07/12 00:10:17;;;;;;;2.60;2.40;;;26.00;91.60;;;;;;5009287;28;20468;-61
2023/07/12 00:12:44;;;;;;;3.17;2.87;;;26.00;91.60;;;;;;5010971;28;20475;-61
2023/07/12 00:15:17;;;;;;;2.90;2.70;;;26.00;92.00;;;;;;5013224;28;20922;-61
2023/07/12 00:17:44;;;;;;;3.70;3.40;;;26.00;91.60;;;;;;5012789;28;20878;-61
2023/07/12 00:20:20;;;;;;;3.30;3.00;;;26.00;91.70;;;;;;5011345;28;20691;-61
2023/07/12 00:22:50;;;;;;;2.70;2.50;;;26.00;91.60;;;;;;5009272;28;20460;-61
2023/07/12 00:25:18;;;;;;;2.67;2.47;;;26.00;91.60;;;;;;5015545;28;20541;-61
2023/07/12 00:27:45;;;;;;;3.00;2.70;;;26.00;91.60;;;;;;5016982;28;20448;-61
2023/07/12 00:30:15;;;;;;;2.93;2.73;;;26.00;91.70;;;;;;5012085;28;20460;-61
2023/07/12 00:32:42;;;;;;;3.53;3.23;;;26.00;91.60;;;;;;5017695;28;20489;-61
2023/07/12 00:35:13;;;;;;;3.23;2.83;;;26.00;91.90;;;;;;5010954;28;20507;-61
2023/07/12 00:37:40;;;;;;;3.10;2.80;;;26.00;91.70;;;;;;5002149;28;20491;-61
2023/07/12 00:40:20;;;;;;;3.00;2.70;;;26.00;91.70;;;;;;5002429;28;20467;-61
2023/07/12 00:42:52;;;;;;;2.90;2.70;;;26.00;91.60;;;;;;5006216;28;20870;-61
2023/07/12 00:45:19;;;;;;;2.87;2.67;;;26.00;91.70;;;;;;5005037;28;20477;-61
2023/07/12 00:47:49;;;;;;;2.70;2.50;;;26.00;91.70;;;;;;5009574;28;20469;-61
2023/07/12 00:50:18;;;;;;;2.60;2.40;;;26.00;91.70;;;;;;5008457;28;20458;-61
2023/07/12 00:52:45;;;;;;;3.30;2.70;;;26.00;91.70;;;;;;5009441;28;20635;-61
2023/07/12 00:55:45;;;;;;;3.60;3.30;;;25.90;91.70;;;;;;5002933;28;20511;-61
2023/07/12 00:58:14;;;;;;;2.60;2.40;;;25.90;91.60;;;;;;5004608;28;20981;-61
2023/07/12 01:00:41;;;;;;;3.10;2.90;;;26.00;91.70;;;;;;5002906;28;20468;-61
2023/07/12 01:03:13;;;;;;;3.10;2.80;;;25.90;91.70;;;;;;5004397;28;20462;-61
2023/07/12 01:05:40;;;;;;;3.03;2.73;;;25.90;91.70;;;;;;4998887;28;20472;-61
2023/07/12 01:08:07;;;;;;;2.53;2.33;;;25.90;91.70;;;;;;5002564;28;20449;-62
2023/07/12 01:10:33;;;;;;;2.77;2.57;;;25.90;91.80;;;;;;4999319;28;20784;-61
2023/07/12 01:13:00;;;;;;;2.60;2.40;;;25.90;91.80;;;;;;4999795;28;20467;-61
2023/07/12 01:15:29;;;;;;;2.57;2.37;;;25.90;91.80;;;;;;4996948;28;20476;-61
2023/07/12 01:17:55;;;;;;;2.93;2.73;;;25.90;91.80;;;;;;4999759;28;20463;-61
2023/07/12 01:20:22;;;;;;;3.20;2.90;;;25.90;91.70;;;;;;5001600;28;20980;-61
2023/07/12 01:22:53;;;;;;;2.90;2.60;;;25.90;91.70;;;;;;4997524;28;20455;-61
2023/07/12 01:25:33;;;;;;;3.63;2.60;;;25.90;91.80;;;;;;4998980;28;20491;-61
2023/07/12 01:27:59;;;;;;;3.97;3.47;;;25.90;91.70;;;;;;5000903;28;20470;-61
2023/07/12 01:30:27;;;;;;;2.87;2.63;;;25.90;91.80;;;;;;5003173;28;20494;-61
2023/07/12 01:32:54;;;;;;;3.37;3.07;;;25.90;91.80;;;;;;4998835;28;20768;-61
2023/07/12 01:35:21;;;;;;;3.17;2.87;;;25.90;91.80;;;;;;4992520;28;21000;-61
2023/07/12 01:37:48;;;;;;;2.83;2.63;;;25.90;91.80;;;;;;4997064;28;20471;-61
2023/07/12 01:40:16;;;;;;;2.70;2.50;;;25.90;91.80;;;;;;4995307;28;20464;-61
2023/07/12 01:42:43;;;;;;;2.93;2.73;;;25.90;91.80;;;;;;4996998;28;20471;-61
2023/07/12 01:45:10;;;;;;;2.53;2.33;;;25.90;91.80;;;;;;4995134;28;20828;-61
2023/07/12 01:47:37;;;;;;;3.70;3.40;;;25.90;91.80;;;;;;4996830;28;20472;-61
2023/07/12 01:50:04;;;;;;;3.43;3.13;;;25.90;91.80;;;;;;5001071;28;20475;-61
2023/07/12 01:52:31;;;;;;;3.70;2.57;;;25.90;91.80;;;;;;5002991;28;20562;-61
2023/07/12 01:54:58;;;;;;;2.80;2.30;;;25.90;91.90;;;;;;5000501;28;21283;-61
2023/07/12 01:57:26;;;;;;;2.60;2.00;;;25.90;91.90;;;;;;5001396;28;20487;-61
2023/07/12 01:59:52;;;;;;;2.50;2.30;;;25.90;91.90;;;;;;4996883;28;20548;-61
2023/07/12 02:02:19;;;;;;;2.93;2.63;;;25.90;91.90;;;;;;5001034;28;20459;-61
2023/07/12 02:04:46;;;;;;;2.47;2.27;;;25.90;91.90;;;;;;5001696;28;20945;-61
2023/07/12 02:07:13;;;;;;;2.90;2.70;;;25.90;91.80;;;;;;5002177;28;20463;-61
2023/07/12 02:09:41;;;;;;;2.47;2.27;;;25.90;91.90;;;;;;5000499;28;21076;-61
2023/07/12 02:12:08;;;;;;;2.80;2.60;;;25.90;91.90;;;;;;5001654;28;21517;-61
2023/07/12 02:14:36;;;;;;;2.90;2.70;;;25.90;91.90;;;;;;5001106;28;20468;-61
2023/07/12 02:17:03;;;;;;;2.67;2.47;;;25.90;91.90;;;;;;4995824;28;20478;-61
2023/07/12 02:19:30;;;;;;;3.00;2.70;;;25.90;91.90;;;;;;4995292;28;20468;-61
2023/07/12 02:21:57;;;;;;;2.60;2.40;;;25.90;91.90;;;;;;5002792;28;20967;-61
2023/07/12 02:24:23;;;;;;;2.80;2.60;;;25.90;91.90;;;;;;4993715;28;20477;-61
2023/07/12 02:26:50;;;;;;;2.53;2.30;;;25.90;91.90;;;;;;4996175;28;20474;-61
2023/07/12 02:29:17;;;;;;;2.90;2.70;;;25.90;91.90;;;;;;4996147;28;20466;-61
2023/07/12 02:31:45;;;;;;;3.00;2.50;;;25.90;91.90;;;;;;4997798;28;20470;-61
2023/07/12 02:34:11;;;;;;;2.63;2.43;;;25.90;91.90;;;;;;4997781;28;20467;-61
2023/07/12 02:36:38;;;;;;;3.30;3.00;;;25.90;91.90;;;;;;4995368;28;20544;-61
2023/07/12 02:39:05;;;;;;;3.10;2.90;;;25.90;91.90;;;;;;4996436;28;20471;-61
2023/07/12 02:41:31;;;;;;;2.40;2.20;;;25.90;91.90;;;;;;4997040;28;21114;-61
2023/07/12 02:43:58;;;;;;;2.77;2.57;;;25.90;91.90;;;;;;4997663;28;20511;-61
2023/07/12 02:46:25;;;;;;;2.67;2.47;;;25.80;91.90;;;;;;4996335;28;20463;-61
2023/07/12 02:48:53;;;;;;;2.50;2.30;;;25.90;92.00;;;;;;4994854;28;20467;-61
2023/07/12 02:51:19;;;;;;;4.40;3.00;;;25.90;92.00;;;;;;4998674;28;20476;-61
2023/07/12 02:53:46;;;;;;;2.63;2.43;;;25.90;92.00;;;;;;4998788;28;21040;-61
2023/07/12 02:56:13;;;;;;;2.63;2.43;;;25.90;91.90;;;;;;4993582;28;20484;-61
2023/07/12 02:58:40;;;;;;;3.53;3.23;;;25.90;92.00;;;;;;4994625;28;20474;-61
2023/07/12 03:01:06;;;;;;;2.83;2.63;;;25.90;92.00;;;;;;4993890;28;20463;-61
2023/07/12 03:03:33;;;;;;;2.73;2.53;;;25.90;92.00;;;;;;4995078;28;20471;-61
2023/07/12 03:06:05;;;;;;;2.10;1.90;;;25.90;92.00;;;;;;4995108;28;20467;-61
2023/07/12 03:08:31;;;;;;;2.70;2.50;;;25.90;92.00;;;;;;4997531;28;20460;-61
2023/07/12 03:10:58;;;;;;;2.60;2.40;;;25.90;92.00;;;;;;4996402;28;21026;-61
2023/07/12 03:13:25;;;;;;;2.60;2.40;;;25.90;92.00;;;;;;4996048;28;21019;-61
2023/07/12 03:15:52;;;;;;;3.00;2.57;;;25.90;92.00;;;;;;4999141;28;20463;-61
2023/07/12 03:18:18;;;;;;;2.93;2.70;;;25.90;92.00;;;;;;4999470;28;21000;-61
2023/07/12 03:20:45;;;;;;;3.10;2.80;;;25.80;92.00;;;;;;5005182;28;20468;-61
2023/07/12 03:23:13;;;;;;;2.87;2.63;;;25.80;92.00;;;;;;5003600;28;20466;-61
2023/07/12 03:25:40;;;;;;;2.47;2.27;;;25.80;92.00;;;;;;5005187;28;20460;-61
2023/07/12 03:28:06;;;;;;;1.90;1.80;;;25.80;92.00;;;;;;5006330;28;20461;-61
2023/07/12 03:30:34;;;;;;;2.40;2.20;;;25.80;92.00;;;;;;5004796;28;20460;-61
2023/07/12 03:33:00;;;;;;;2.60;2.40;;;25.80;92.00;;;;;;5005496;28;21118;-61
2023/07/12 03:35:28;;;;;;;2.80;2.57;;;25.80;92.00;;;;;;5006230;28;20489;-61
2023/07/12 03:37:54;;;;;;;2.40;2.20;;;25.80;92.00;;;;;;5006511;28;20487;-61
2023/07/12 03:40:22;;;;;;;2.53;2.33;;;25.80;92.00;;;;;;5004965;28;20472;-61
2023/07/12 03:42:49;;;;;;;3.03;2.73;;;25.80;92.00;;;;;;5007394;28;20822;-61
2023/07/12 03:45:16;;;;;;;2.60;2.27;;;25.80;92.00;;;;;;5006903;28;20465;-61
2023/07/12 03:47:42;;;;;;;2.63;2.43;;;25.80;92.00;;;;;;5007051;28;20467;-61
2023/07/12 03:50:10;;;;;;;2.40;2.20;;;25.80;92.00;;;;;;5016005;28;20440;-61
2023/07/12 03:52:36;;;;;;;2.23;2.03;;;25.80;92.00;;;;;;5005294;28;20460;-61
2023/07/12 03:55:04;;;;;;;2.53;2.33;;;25.80;92.00;;;;;;5006869;28;20460;-61
2023/07/12 03:57:32;;;;;;;1.90;1.80;;;25.80;92.00;;;;;;5000013;28;20498;-61
2023/07/12 03:59:59;;;;;;;2.60;2.40;;;25.80;92.00;;;;;;4996956;28;20471;-61
2023/07/12 04:02:25;;;;;;;2.40;2.20;;;25.80;92.00;;;;;;5004305;28;21018;-61
2023/07/12 04:04:52;;;;;;;2.90;2.70;;;25.80;92.10;;;;;;5000950;28;20778;-61
2023/07/12 04:07:18;;;;;;;2.43;2.23;;;25.80;92.00;;;;;;4998290;28;20469;-61
2023/07/12 04:09:45;;;;;;;3.10;2.90;;;25.80;92.10;;;;;;4999103;28;20459;-61
2023/07/12 04:12:12;;;;;;;2.83;2.60;;;25.80;92.10;;;;;;4999596;28;20459;-61
2023/07/12 04:14:40;;;;;;;2.63;2.43;;;25.80;92.10;;;;;;5000997;28;20963;-62
2023/07/12 04:17:06;;;;;;;2.37;2.13;;;25.80;92.10;;;;;;5000695;28;20498;-61
2023/07/12 04:19:33;;;;;;;2.83;2.63;;;25.80;92.10;;;;;;4998629;28;20464;-61
2023/07/12 04:22:00;;;;;;;2.37;2.23;;;25.80;92.10;;;;;;5002661;28;20979;-61
2023/07/12 04:24:27;;;;;;;2.67;2.37;;;25.80;92.10;;;;;;5000815;28;20464;-61
2023/07/12 04:26:53;;;;;;;3.10;2.80;;;25.80;92.10;;;;;;4999561;28;20815;-61
2023/07/12 04:29:20;;;;;;;2.17;1.97;;;25.80;92.10;;;;;;4997832;28;21306;-61
2023/07/12 04:31:48;;;;;;;2.40;2.20;;;25.80;92.10;;;;;;4998595;28;20478;-61
2023/07/12 04:34:15;;;;;;;1.90;1.80;;;25.80;92.10;;;;;;4998636;28;20467;-61
2023/07/12 04:36:42;;;;;;;2.50;2.30;;;25.80;92.10;;;;;;4998457;28;20483;-61
2023/07/12 04:39:09;;;;;;;2.33;2.13;;;25.80;92.10;;;;;;5000436;28;20664;-61
2023/07/12 04:41:36;;;;;;;2.23;2.03;;;25.70;92.10;;;;;;4998168;28;20474;-61
2023/07/12 04:44:02;;;;;;;2.27;2.07;;;25.70;92.10;;;;;;4997805;28;20462;-61
2023/07/12 04:46:30;;;;;;;2.90;2.50;;;25.80;92.10;;;;;;4998644;28;20476;-61
2023/07/12 04:48:58;;;;;;;2.07;1.87;;;25.70;92.10;;;;;;5003226;28;20975;-61
2023/07/12 04:51:25;;;;;;;2.33;2.17;;;25.80;92.10;;;;;;5005483;28;20476;-61
2023/07/12 04:53:51;;;;;;;2.87;2.67;;;25.80;92.10;;;;;;5004806;28;20470;-61
2023/07/12 04:56:18;;;;;;;2.37;2.17;;;25.70;92.10;;;;;;5004904;28;20582;-61
2023/07/12 04:58:45;;;;;;;2.40;2.10;;;25.80;92.20;;;;;;5002051;28;21099;-61
2023/07/12 05:01:13;;;;;;;2.60;1.90;;;25.80;92.20;;;;;;5002920;28;20871;-61
2023/07/12 05:03:39;;;;;;;2.50;2.30;;;25.80;92.20;;;;;;4998700;28;20455;-61
2023/07/12 05:06:07;;;;;;;2.30;2.10;;;25.80;92.20;;;;;;4998081;28;20459;-61
2023/07/12 05:08:34;;;;;;;2.07;1.87;;;25.80;92.20;;;;;;4996608;28;20470;-61
2023/07/12 05:11:03;;;;;;;2.33;2.10;;;25.80;92.20;;;;;;4997779;28;21058;-61
2023/07/12 05:13:30;;;;;;;2.67;2.23;;;25.70;92.10;;;;;;4994740;28;20492;-61
2023/07/12 05:15:58;;;;;;;2.67;2.40;;;25.70;92.10;;;;;;4996239;28;20463;-61
2023/07/12 05:18:24;;;;;;;2.23;2.00;;;25.80;92.20;;;;;;5002402;28;20577;-61
2023/07/12 05:20:52;;;;;;;2.60;2.40;;;25.80;92.20;;;;;;5005062;28;20468;-61
2023/07/12 05:23:20;;;;;;;2.27;2.07;;;25.70;92.20;;;;;;5004920;28;20463;-61
2023/07/12 05:25:51;;;;;;;2.10;2.00;;;25.70;92.20;;;;;;5008249;28;20943;-61
2023/07/12 05:28:18;;;;;;;2.47;2.27;;;25.70;92.10;;;;;;5004769;28;20884;-61
2023/07/12 05:30:45;;;;;;;2.63;2.37;;;25.70;92.20;;;;;;5007033;28;20460;-61
2023/07/12 05:33:12;;;;;;;2.70;2.50;;;25.70;92.20;;;;;;5005762;28;20460;-61
2023/07/12 05:35:39;;;;;;;2.53;2.33;;;25.70;92.20;;;;;;5006948;28;20592;-61
2023/07/12 05:38:06;;;;;;;2.60;2.40;;;25.70;92.20;;;;;;5008178;28;20486;-61
2023/07/12 05:40:34;;;;;;;4.07;1.90;;;25.70;92.20;;;;;;5009629;28;20836;-61
2023/07/12 05:43:01;;;;;;;2.63;2.43;;;25.70;92.20;;;;;;5006558;28;20530;-61
2023/07/12 05:45:28;;;;;;;1.90;1.77;;;25.70;92.20;;;;;;4999983;28;20478;-61
2023/07/12 05:47:54;;;;;;;2.50;2.20;;;25.70;92.20;;;;;;5009412;28;21074;-61
2023/07/12 05:50:21;;;;;;;2.60;2.40;;;25.70;92.20;;;;;;5011755;28;20456;-61
2023/07/12 05:52:48;;;;;;;2.50;2.30;;;25.70;92.20;;;;;;5009998;28;21060;-61
2023/07/12 05:55:18;;;;;;;2.43;2.23;;;25.70;92.20;;;;;;5007640;28;20463;-61
2023/07/12 05:57:47;;;;;;;2.40;2.20;;;25.70;92.20;;;;;;4998179;28;21128;-60
2023/07/12 06:00:15;;;;;;;2.20;2.00;;;25.70;92.30;;;;;;5000514;28;20554;-60
2023/07/12 06:02:42;;;;;;;2.20;2.00;;;25.70;92.30;;;;;;5005295;28;21979;-60
2023/07/12 06:05:10;;;;;;;2.67;2.47;;;25.70;92.30;;;;;;5009931;28;20465;-60
2023/07/12 06:07:37;;;;;;;2.40;2.20;;;25.70;92.30;;;;;;5002719;28;20456;-60
2023/07/12 06:10:04;;;;;;;2.27;2.17;;;25.70;92.30;;;;;;5003720;28;21034;-60
2023/07/12 06:12:30;;;;;;;2.63;2.40;;;25.70;92.30;;;;;;5001887;28;20481;-60
2023/07/12 06:14:58;;;;;;;2.50;2.30;;;25.70;92.30;;;;;;4998787;28;20460;-60
2023/07/12 06:17:25;;;;;;;3.47;2.50;;;25.70;92.30;;;;;;4996520;28;20494;-60
2023/07/12 06:19:52;;;;;;;2.20;2.03;;;25.70;92.30;;;;;;4993392;28;20660;-60
2023/07/12 06:22:19;;;;;;;2.43;2.10;;;25.70;92.30;;;;;;4998494;28;21474;-60
2023/07/12 06:24:46;;;;;;;2.00;1.80;;;25.70;92.30;;;;;;5000971;28;20460;-60
2023/07/12 06:27:13;;;;;;;2.93;2.63;;;25.70;92.30;;;;;;4999760;28;20508;-60
2023/07/12 06:29:40;;;;;;;2.87;2.23;;;25.70;92.30;;;;;;5004165;28;20530;-60
2023/07/12 06:32:10;;;;;;;2.83;2.53;;;25.70;92.30;;;;;;4996677;28;20460;-60
2023/07/12 06:34:37;;;;;;;2.47;2.27;;;25.70;92.30;;;;;;4996725;28;20475;-60
2023/07/12 06:37:04;;;;;;;2.20;2.00;;;25.70;92.30;;;;;;4997502;28;20772;-60
2023/07/12 06:39:30;;;;;;;2.40;2.20;;;25.70;92.30;;;;;;5001922;28;20472;-60
2023/07/12 06:41:57;;;;;;;2.57;2.37;;;25.70;92.30;;;;;;4997782;28;20465;-60
2023/07/12 06:44:24;;;;;;;2.37;2.17;;;25.70;92.30;;;;;;4993064;28;20466;-60
2023/07/12 06:46:51;;;;;;;2.63;2.43;;;25.70;92.40;;;;;;4993184;28;20495;-60
2023/07/12 06:49:19;;;;;;;2.37;2.17;;;25.70;92.40;;;;;;5000759;28;20817;-60
2023/07/12 06:51:46;;;;;;;2.23;2.10;;;25.70;92.40;;;;;;5003776;28;20466;-60
2023/07/12 06:54:13;;;;;;;2.10;2.00;;;25.70;92.40;;;;;;5003993;28;20466;-60
2023/07/12 06:56:40;;;;;;;1.70;1.60;;;25.70;92.40;;;;;;5002231;28;20543;-60
2023/07/12 06:59:07;;;;;;;1.80;1.70;;;25.70;92.40;;;;;;5000223;28;20571;-60
2023/07/12 07:01:34;;;;;;;2.10;1.90;;;25.70;92.40;;;;;;5002634;28;20468;-60
2023/07/12 07:04:01;;;;;;;2.77;2.57;;;25.70;92.40;;;;;;4999892;28;20467;-60
2023/07/12 07:06:29;;;;;;;3.00;2.17;;;25.70;92.40;;;;;;4995110;28;20536;-60
2023/07/12 07:08:56;;;;;;;1.90;1.80;;;25.70;92.40;;;;;;4994646;28;20456;-60
2023/07/12 07:11:22;;;;;;;2.30;2.10;;;25.70;92.40;;;;;;4994908;28;21086;-60
2023/07/12 07:13:50;;;;;;;2.60;2.40;;;25.70;92.40;;;;;;4997034;28;20469;-60
2023/07/12 07:16:17;;;;;;;2.40;1.90;;;25.70;92.40;;;;;;4992259;28;20555;-60
2023/07/12 07:18:44;;;;;;;2.57;2.37;;;25.70;92.40;;;;;;4994913;28;20483;-60
2023/07/12 07:21:11;;;;;;;2.40;2.03;;;25.70;92.40;;;;;;5002089;28;20964;-60
2023/07/12 07:23:39;;;;;;;2.40;2.20;;;25.70;92.40;;;;;;4998690;28;20494;-60
2023/07/12 07:26:07;;;;;;;1.70;1.57;;;25.70;92.50;;;;;;4998882;28;20825;-60
2023/07/12 07:28:34;;;;;;;2.27;2.07;;;25.70;92.50;;;;;;4999813;28;20570;-60
2023/07/12 07:31:02;;;;;;;2.10;1.67;;;25.70;92.40;;;;;;4993595;28;21241;-60
2023/07/12 07:33:28;;;;;;;3.77;2.47;;;25.70;92.30;;;;;;4995286;28;20734;-60
2023/07/12 07:35:56;;;;;;;3.13;2.67;;;25.70;92.20;;;;;;4993545;28;20484;-60
2023/07/12 07:38:26;;;;;;;1.87;1.77;;;25.70;92.60;;;;;;4998992;28;20490;-60
2023/07/12 07:40:56;;;;;;;2.53;2.33;;;25.60;92.20;;;;;;4998813;28;20459;-60
2023/07/12 07:43:23;;;;;;;3.30;2.83;;;25.60;92.20;;;;;;4999155;28;20464;-60
2023/07/12 07:45:50;;;;;;;2.80;2.60;;;25.60;92.30;;;;;;4996577;28;20469;-60
2023/07/12 07:48:17;;;;;;;4.20;2.90;;;25.70;92.40;;;;;;4998991;28;20460;-60
2023/07/12 07:50:43;;;;;;;2.03;1.90;;;25.70;92.50;;;;;;5004023;28;20802;-61
2023/07/12 07:53:12;;;;;;;3.67;3.33;;;25.60;92.60;;;;;;5005793;28;20883;-61
2023/07/12 07:55:42;;;;;;;2.47;2.27;;;25.70;92.60;;;;;;5004246;28;20543;-62
2023/07/12 07:58:10;;;;;;;3.07;2.40;;;25.70;92.60;;;;;;5007386;28;20487;-61
2023/07/12 08:00:37;;;;;;;2.20;2.00;;;25.70;92.60;;;;;;5006787;28;20547;-61
2023/07/12 08:03:04;;;;;;;4.23;2.10;;;25.70;92.60;;;;;;5014243;28;20465;-61
2023/07/12 08:05:31;;;;;;;4.13;2.70;;;25.70;92.70;;;;;;5013273;28;20542;-61
2023/07/12 08:07:59;;;;;;;2.40;1.80;;;25.70;92.70;;;;;;5014858;28;20455;-61
2023/07/12 08:10:26;;;;;;;2.70;2.37;;;25.70;92.70;;;;;;5013289;28;20464;-61
2023/07/12 08:12:55;;;;;;;2.90;2.50;;;25.60;92.80;;;;;;5007998;28;20927;-61
2023/07/12 08:15:23;;;;;;;2.47;2.27;;;25.60;92.80;;;;;;5004354;28;20550;-61
2023/07/12 08:17:50;;;;;;;2.73;2.53;;;25.70;92.80;;;;;;5001293;28;20870;-61
2023/07/12 08:20:17;;;;;;;3.97;3.10;;;25.70;92.80;;;;;;5000762;28;21041;-61
2023/07/12 08:22:44;;;;;;;3.13;2.40;;;25.60;92.80;;;;;;5000351;28;20506;-61
2023/07/12 08:25:11;;;;;;;2.73;2.50;;;25.70;92.80;;;;;;5003757;28;20593;-61
2023/07/12 08:27:38;;;;;;;2.37;2.17;;;25.60;92.90;;;;;;5004889;28;20481;-61
2023/07/12 08:30:06;;;;;;;3.10;2.80;;;25.60;92.90;;;;;;5008862;28;20490;-61
2023/07/12 08:32:34;;;;;;;3.30;2.90;;;25.70;92.90;;;;;;5016153;28;20448;-61
2023/07/12 08:35:03;;;;;;;2.20;2.00;;;25.60;92.90;;;;;;5003733;28;20579;-60
2023/07/12 08:37:30;;;;;;;4.00;2.10;;;25.60;92.90;;;;;;5005240;28;20476;-60
2023/07/12 08:39:57;;;;;;;4.10;2.23;;;25.60;93.00;;;;;;5003332;28;20490;-60
2023/07/12 08:42:28;;;;;;;3.57;2.20;;;25.70;93.00;;;;;;5002806;28;20457;-60
2023/07/12 08:44:58;;;;;;;3.70;2.30;;;25.70;93.00;;;;;;5002984;28;20468;-60
2023/07/12 08:47:30;;;;;;;5.03;2.50;;;25.70;93.00;;;;;;5003716;28;20464;-60
2023/07/12 08:49:59;;;;;;;2.97;1.90;;;25.70;92.10;;;;;;5006744;28;20530;-60
2023/07/12 08:52:31;;;;;;;4.43;1.97;;;25.60;91.20;;;;;;5012487;28;20495;-60
2023/07/12 08:54:59;;;;;;;7.97;2.30;;;25.60;90.70;;;;;;5003651;28;20571;-60
2023/07/12 08:57:30;;;;;;;3.70;1.97;;;25.60;90.20;;;;;;5002438;28;20462;-60
2023/07/12 09:00:05;;;;;;;3.10;1.73;;;25.50;90.10;;;;;;4999143;28;20566;-60
2023/07/12 09:02:32;;;;;;;6.07;2.07;;;25.50;90.20;;;;;;5006947;28;20463;-60
2023/07/12 09:05:11;;;;;;;2.67;2.23;;;25.50;89.80;;;;;;5002320;28;20959;-60
2023/07/12 09:07:38;;;;;;;4.23;2.10;;;25.50;89.90;;;;;;5007326;28;20467;-60
2023/07/12 09:10:06;;;;;;;2.30;1.53;;;25.40;88.70;;;;;;5007144;28;20462;-60
2023/07/12 09:12:36;;;;;;;4.80;1.80;;;25.40;88.40;;;;;;5000363;28;20886;-60
2023/07/12 09:15:05;;;;;;;2.30;1.80;;;25.40;88.10;;;;;;4999821;28;20467;-60
2023/07/12 09:17:35;;;;;;;5.03;1.80;;;25.40;87.40;;;;;;4999454;28;20887;-60
2023/07/12 09:20:18;;;;;;;5.30;1.97;;;25.30;86.90;;;;;;5002758;28;21011;-60
2023/07/12 09:22:45;;;;;;;2.67;1.57;;;25.30;86.20;;;;;;5003267;28;20456;-60
2023/07/12 09:25:20;;;;;;;4.70;1.73;;;25.30;86.10;;;;;;5006851;28;20580;-60
2023/07/12 09:27:48;;;;;;;3.50;1.97;;;25.30;86.20;;;;;;5004716;28;20522;-60
2023/07/12 09:30:21;;;;;;;6.07;2.47;;;25.30;86.00;;;;;;5002379;28;20466;-60
2023/07/12 09:32:49;;;;;;;2.17;1.80;;;25.30;85.60;;;;;;5004980;28;20463;-61
2023/07/12 09:35:30;;;;;;;6.40;1.83;;;25.30;85.30;;;;;;5004368;28;20480;-60
2023/07/12 09:37:58;;;;;;;3.13;1.97;;;25.20;85.70;;;;;;5003832;28;20474;-60
2023/07/12 09:40:29;;;;;;;4.63;2.10;;;25.20;85.10;;;;;;5003645;28;20526;-61
2023/07/12 09:42:58;;;;;;;2.37;1.77;;;25.20;84.50;;;;;;5005029;28;20546;-60
2023/07/12 09:45:30;;;;;;;5.37;2.30;;;25.20;84.30;;;;;;5003481;28;20529;-60
2023/07/12 09:48:03;;;;;;;3.47;2.10;;;25.20;85.00;;;;;;5004587;28;20568;-60
2023/07/12 09:50:38;;;;;;;2.47;1.57;;;25.20;84.80;;;;;;5001508;28;20466;-60
2023/07/12 09:53:12;;;;;;;2.40;2.03;;;25.20;85.00;;;;;;5003112;28;20521;-61
2023/07/12 09:55:45;;;;;;;3.73;2.20;;;25.20;84.90;;;;;;5003089;28;20461;-60
2023/07/12 09:58:20;;;;;;;3.37;1.90;;;25.20;84.50;;;;;;5004832;28;21031;-60
2023/07/12 10:00:55;;;;;;;6.70;2.53;;;25.20;84.10;;;;;;5000087;28;20462;-60
2023/07/12 10:03:25;;;;;;;3.00;1.83;;;25.20;83.60;;;;;;5005842;28;20463;-60
2023/07/12 10:05:57;;;;;;;5.40;1.77;;;25.20;83.30;;;;;;5003439;28;20459;-60
2023/07/12 10:08:27;;;;;;;3.00;1.90;;;25.10;83.20;;;;;;5003792;28;20463;-60
2023/07/12 10:11:04;;;;;;;2.73;1.80;;;25.10;83.20;;;;;;5004962;28;20464;-60
2023/07/12 10:13:37;;;;;;;5.53;2.10;;;25.10;83.40;;;;;;5004425;28;20506;-60
2023/07/12 10:16:13;;;;;;;3.03;1.90;;;25.10;83.60;;;;;;5002541;28;20464;-60
2023/07/12 10:18:40;;;;;;;3.70;2.57;;;25.10;83.30;;;;;;5003343;28;20498;-60
2023/07/12 10:21:14;;;;;;;5.20;2.57;;;25.10;83.40;;;;;;5003486;28;20506;-60
2023/07/12 10:23:45;;;;;;;3.50;2.20;;;25.10;83.50;;;;;;4999927;28;20474;-61
2023/07/12 10:26:15;;;;;;;4.90;2.50;;;25.10;83.50;;;;;;5004387;28;21431;-60
2023/07/12 10:28:48;;;;;;;5.43;2.43;;;25.10;83.20;;;;;;5000066;28;20490;-61
2023/07/12 10:31:35;;;;;;;7.50;2.13;;;25.10;83.30;;;;;;5003465;28;20480;-61
2023/07/12 10:34:21;;;;;;;7.87;3.10;;;25.10;84.10;;;;;;5005097;28;20824;-61
2023/07/12 10:36:53;;;;;;;5.97;2.17;;;25.10;83.90;;;;;;5004598;28;20487;-60
2023/07/12 10:39:20;;;;;;;6.37;2.73;;;25.10;83.60;;;;;;5004958;28;20494;-61
2023/07/12 10:41:50;;;;;;;6.43;2.50;;;25.10;83.40;;;;;;5006721;28;20459;-61
2023/07/12 10:44:21;;;;;;;3.10;1.90;;;25.10;83.40;;;;;;5004963;28;20926;-61
2023/07/12 10:46:51;;;;;;;4.57;2.27;;;25.10;82.80;;;;;;5001575;28;20464;-61
2023/07/12 10:49:21;;;;;;;4.50;2.73;;;25.10;82.70;;;;;;5008660;28;20462;-61
2023/07/12 10:52:16;;;;;;;3.67;2.40;;;25.10;82.80;;;;;;5007785;28;20859;-61
2023/07/12 10:55:03;;;;;;;5.50;1.80;;;25.10;82.90;;;;;;5010685;28;20575;-61
2023/07/12 10:57:38;;;;;;;3.70;2.20;;;25.10;82.20;;;;;;5010332;28;20556;-61
2023/07/12 11:00:22;;;;;;;3.93;1.77;;;25.00;82.20;;;;;;5005399;28;20486;-61
2023/07/12 11:03:01;;;;;;;5.20;1.87;;;25.10;82.80;;;;;;5011115;28;20466;-61
2023/07/12 11:05:40;;;;;;;3.47;2.10;;;25.10;82.60;;;;;;5003536;28;20895;-61
2023/07/12 11:08:40;;;;;;;5.17;2.27;;;25.10;82.90;;;;;;5010141;28;20470;-61
2023/07/12 11:11:36;;;;;;;3.73;2.10;;;25.10;83.40;;;;;;5004927;28;20499;-61
2023/07/12 11:14:16;;;;;;;4.33;2.20;;;25.10;83.20;;;;;;5005736;28;20470;-61
2023/07/12 11:16:50;;;;;;;6.00;2.30;;;25.10;83.10;;;;;;5004565;28;20561;-61
2023/07/12 11:19:45;;;;;;;3.30;2.10;;;25.10;82.80;;;;;;5008331;28;20928;-61
2023/07/12 11:22:17;;;;;;;4.17;1.80;;;25.10;83.50;;;;;;5004356;28;20468;-61
2023/07/12 11:24:53;;;;;;;7.67;2.37;;;25.10;83.20;;;;;;5006677;28;20962;-61
2023/07/12 11:27:38;;;;;;;2.70;2.00;;;25.10;84.40;;;;;;5005826;28;20528;-61
2023/07/12 11:30:16;;;;;;;7.93;2.53;;;25.10;83.80;;;;;;5002966;28;20459;-61
2023/07/12 11:32:45;;;;;;;3.13;1.80;;;25.10;83.90;;;;;;5009459;28;20455;-61
2023/07/12 11:35:15;;;;;;;4.43;2.90;;;25.10;83.90;;;;;;5006052;28;20558;-61
2023/07/12 11:37:46;;;;;;;2.57;1.83;;;25.10;83.90;;;;;;5007257;28;20960;-61
2023/07/12 11:40:20;;;;;;;3.83;2.20;;;25.10;84.00;;;;;;5007226;28;20510;-61
2023/07/12 11:42:48;;;;;;;2.93;2.13;;;25.10;84.20;;;;;;5009551;28;20451;-61
2023/07/12 11:45:19;;;;;;;2.63;2.00;;;25.10;84.20;;;;;;5003871;28;20463;-61
2023/07/12 11:47:48;;;;;;;2.70;1.87;;;25.10;84.30;;;;;;5008406;28;20459;-61
2023/07/12 11:50:19;;;;;;;3.60;2.63;;;25.10;84.40;;;;;;5010136;28;21325;-61
2023/07/12 11:52:46;;;;;;;2.57;1.90;;;25.10;84.50;;;;;;5007079;28;20471;-61
2023/07/12 11:55:16;;;;;;;3.30;2.00;;;25.10;84.50;;;;;;5005664;28;20912;-61
2023/07/12 11:57:45;;;;;;;3.30;2.07;;;25.10;84.50;;;;;;5006338;28;20475;-61
2023/07/12 12:00:17;;;;;;;6.83;2.90;;;25.10;84.70;;;;;;5003271;28;20881;-61
2023/07/12 12:02:48;;;;;;;2.70;2.00;;;25.10;84.80;;;;;;5003833;28;20861;-61
2023/07/12 12:05:20;;;;;;;2.03;1.83;;;25.10;84.80;;;;;;5004730;28;20459;-61
2023/07/12 12:07:48;;;;;;;2.70;2.50;;;25.20;84.90;;;;;;5004008;28;20467;-61
2023/07/12 12:10:21;;;;;;;2.57;2.20;;;25.20;85.00;;;;;;5008696;28;20455;-61
2023/07/12 12:12:50;;;;;;;3.83;2.33;;;25.20;85.10;;;;;;5005776;28;20964;-61
2023/07/12 12:15:19;;;;;;;4.43;2.37;;;25.10;85.00;;;;;;5004518;28;20967;-61
2023/07/12 12:17:46;;;;;;;3.10;2.23;;;25.20;85.10;;;;;;5006043;28;20466;-61
2023/07/12 12:20:15;;;;;;;3.30;2.00;;;25.10;85.10;;;;;;5005270;28;20502;-61
2023/07/12 12:22:44;;;;;;;3.93;2.07;;;25.10;85.10;;;;;;5003996;28;20546;-61
2023/07/12 12:25:18;;;;;;;4.10;2.67;;;25.20;85.30;;;;;;5007916;28;20454;-61
2023/07/12 12:27:46;;;;;;;3.30;2.07;;;25.20;85.40;;;;;;5008096;28;20982;-61
2023/07/12 12:30:26;;;;;;;2.50;2.00;;;25.10;85.40;;;;;;5005870;28;20475;-61
2023/07/12 12:33:01;;;;;;;3.97;1.97;;;25.20;85.70;;;;;;5006960;28;20534;-61
2023/07/12 12:35:28;;;;;;;2.43;1.90;;;25.20;85.60;;;;;;5003174;28;20546;-61
2023/07/12 12:37:56;;;;;;;3.60;2.03;;;25.20;85.80;;;;;;5010471;28;20450;-61
2023/07/12 12:40:24;;;;;;;3.27;2.43;;;25.20;85.80;;;;;;5010923;28;20573;-61
2023/07/12 12:43:05;;;;;;;4.30;1.87;;;25.20;85.90;;;;;;5003915;28;20462;-61
2023/07/12 12:45:36;;;;;;;2.57;2.20;;;25.20;86.10;;;;;;5003121;28;20853;-61
2023/07/12 12:48:04;;;;;;;3.43;2.13;;;25.20;86.30;;;;;;5009167;28;20463;-61
2023/07/12 12:50:32;;;;;;;3.97;2.53;;;25.20;86.30;;;;;;5009443;28;20476;-61
2023/07/12 12:53:01;;;;;;;3.80;2.53;;;25.20;86.30;;;;;;5006946;28;20972;-61
2023/07/12 12:55:28;;;;;;;4.53;2.27;;;25.20;86.40;;;;;;5008245;28;20857;-61
2023/07/12 12:57:56;;;;;;;3.63;1.80;;;25.20;86.40;;;;;;5010937;28;20974;-61